Terminal Aerodrome Forecast
Issued by NWS Green Bay, WI

Home | Current Version | Previous Version | Graphics & Text | Print | Product List | Glossary On
Versions: 1 2 3 4 5 6 7 8 9 10 11 12 13 14 15 16 17 18 19 20 21 22 23 24 25 26 27 28 29 30 31 32 33 34 35 36 37 38 39 40 41 42 43 44 45 46 47
000
FTUS43 KGRB 041136
TAFGRB
TAF
KGRB 041136Z 0412/0512 VRB02KT P6SM SCT004 BKN006
      TEMPO 0412/0413 5SM BR BKN004
     FM041500 06005KT P6SM BKN015
     FM041700 08005KT P6SM SCT020 SCT035
     FM042100 14004KT P6SM SCT040
     FM050400 15003KT 5SM BR SKC
      TEMPO 0508/0512 2SM BR SCT006=

USA.gov is the U.S. government's official web portal to all federal, state and local government web resources and services.